createdAt,value
2023-04-28T00:00:04.352Z,6.03
2023-04-28T00:05:26.256Z,5.84
2023-04-28T00:10:48.126Z,5.71
2023-04-28T00:16:09.953Z,5.60
2023-04-28T00:21:31.760Z,5.46
2023-04-28T00:26:53.646Z,5.25
2023-04-28T00:32:15.474Z,5.29
2023-04-28T00:37:38.224Z,5.18
2023-04-28T00:43:00.030Z,5.10
2023-04-28T00:48:22.010Z,5.02
2023-04-28T00:53:44.950Z,4.86
2023-04-28T00:59:06.762Z,4.76
2023-04-28T01:04:29.921Z,4.61
2023-04-28T01:09:51.882Z,4.33
2023-04-28T01:15:18.660Z,3.92
2023-04-28T01:20:40.486Z,3.97
2023-04-28T01:26:02.439Z,4.04
2023-04-28T01:31:24.299Z,4.06
2023-04-28T01:36:46.134Z,4.00
2023-04-28T01:42:07.978Z,3.94
2023-04-28T01:47:29.810Z,3.92
2023-04-28T01:52:51.620Z,3.94
2023-04-28T01:58:13.915Z,3.88
2023-04-28T02:03:35.917Z,3.89
2023-04-28T02:08:57.910Z,3.79
2023-04-28T02:14:19.730Z,3.67
2023-04-28T02:19:41.555Z,3.65
2023-04-28T02:25:03.569Z,3.63
2023-04-28T02:30:25.357Z,3.53
2023-04-28T02:35:47.153Z,3.60
2023-04-28T02:41:09.377Z,3.54
2023-04-28T02:46:31.369Z,3.62
2023-04-28T02:51:53.179Z,3.52
2023-04-28T02:57:15.015Z,3.40
2023-04-28T03:02:36.890Z,3.38
2023-04-28T03:07:59.009Z,3.35
2023-04-28T03:13:20.859Z,3.14
2023-04-28T03:18:42.688Z,3.25
2023-04-28T03:24:05.799Z,3.29
2023-04-28T03:29:27.782Z,3.65
2023-04-28T03:34:49.729Z,4.22
2023-04-28T03:40:11.812Z,4.82
2023-04-28T03:45:33.866Z,5.47
2023-04-28T03:50:55.701Z,6.49
2023-04-28T03:56:17.548Z,7.95
2023-04-28T04:01:39.368Z,10.76
2023-04-28T04:07:01.432Z,11.56
2023-04-28T04:12:12.983Z,11.24
2023-04-28T04:17:34.999Z,10.86
2023-04-28T04:22:56.881Z,11.90
2023-04-28T04:28:18.804Z,15.70
2023-04-28T04:33:40.680Z,18.70
2023-04-28T04:39:02.875Z,18.13
2023-04-28T04:44:24.697Z,16.60
2023-04-28T04:49:46.630Z,17.23
2023-04-28T04:55:08.867Z,18.13
2023-04-28T05:00:30.831Z,18.45
2023-04-28T05:05:52.709Z,21.26
2023-04-28T05:11:14.721Z,26.74
2023-04-28T05:16:36.607Z,29.22
2023-04-28T05:21:58.535Z,29.10
2023-04-28T05:27:20.396Z,30.55
2023-04-28T05:32:42.304Z,29.98
2023-04-28T05:38:04.163Z,29.28
2023-04-28T05:43:25.952Z,29.65
2023-04-28T05:48:47.796Z,32.59
2023-04-28T05:54:09.628Z,29.27
2023-04-28T05:59:31.555Z,31.51
2023-04-28T06:04:53.540Z,33.29
2023-04-28T06:10:15.513Z,35.07
2023-04-28T06:15:37.506Z,32.48
2023-04-28T06:20:59.415Z,33.38
2023-04-28T06:26:21.400Z,32.16
2023-04-28T06:31:43.375Z,32.25
2023-04-28T06:37:05.283Z,33.46
2023-04-28T06:42:27.220Z,34.21
2023-04-28T06:47:49.095Z,33.78
2023-04-28T06:53:10.935Z,31.51
2023-04-28T06:58:32.796Z,31.04
2023-04-28T07:03:54.783Z,33.08
2023-04-28T07:09:16.686Z,31.86
2023-04-28T07:14:38.503Z,32.59
2023-04-28T07:20:00.358Z,31.98
2023-04-28T07:25:22.274Z,31.79
2023-04-28T07:30:44.136Z,31.56
2023-04-28T07:36:06.470Z,30.65
2023-04-28T07:41:28.468Z,29.74
2023-04-28T07:46:52.133Z,28.28
2023-04-28T07:52:14.335Z,24.78
2023-04-28T07:57:36.358Z,21.99
2023-04-28T08:02:58.310Z,20.52
2023-04-28T08:08:20.459Z,19.14
2023-04-28T08:13:42.285Z,18.43
2023-04-28T08:19:04.213Z,18.65
2023-04-28T08:24:26.186Z,17.96
2023-04-28T08:29:48.053Z,16.71
2023-04-28T08:35:10.385Z,16.06
2023-04-28T08:40:32.294Z,16.73
2023-04-28T08:45:54.246Z,17.73
2023-04-28T08:51:23.681Z,16.88
2023-04-28T08:56:46.337Z,21.81
2023-04-28T09:02:09.144Z,19.58
2023-04-28T09:07:31.199Z,20.67
2023-04-28T09:12:54.856Z,22.40
2023-04-28T09:18:16.749Z,21.67
2023-04-28T09:23:48.728Z,21.39
2023-04-28T09:29:13.314Z,20.31
2023-04-28T09:34:54.940Z,19.89
2023-04-28T09:40:16.938Z,19.98
2023-04-28T09:45:39.969Z,19.98
2023-04-28T09:51:04.077Z,19.74
2023-04-28T09:56:28.658Z,19.50
2023-04-28T10:01:50.758Z,16.99
2023-04-28T10:07:14.075Z,16.58
2023-04-28T10:12:36.061Z,16.72
2023-04-28T10:17:59.330Z,16.74
2023-04-28T10:23:47.768Z,18.01
2023-04-28T10:29:09.766Z,16.84
2023-04-28T10:34:31.797Z,16.96
2023-04-28T10:40:31.153Z,16.54
2023-04-28T10:45:56.795Z,15.45
2023-04-28T10:51:19.432Z,15.73
2023-04-28T10:57:02.193Z,15.82
2023-04-28T11:02:50.641Z,16.44
2023-04-28T11:08:18.316Z,16.33
2023-04-28T11:13:41.924Z,17.37
2023-04-28T11:19:04.493Z,16.31
2023-04-28T11:24:28.165Z,15.41
2023-04-28T11:29:49.961Z,15.94
2023-04-28T11:35:11.770Z,16.61
2023-04-28T11:40:33.780Z,16.10
2023-04-28T11:45:55.755Z,17.11
2023-04-28T11:51:35.521Z,16.17
2023-04-28T11:56:58.348Z,17.23
2023-04-28T12:02:28.193Z,17.01
2023-04-28T12:07:50.403Z,16.86
2023-04-28T12:13:16.336Z,16.88
2023-04-28T12:18:38.192Z,17.02
2023-04-28T12:24:00.030Z,17.36
2023-04-28T12:29:41.533Z,15.69
2023-04-28T12:35:03.921Z,15.21
2023-04-28T12:40:26.088Z,15.02
2023-04-28T12:45:48.004Z,14.84
2023-04-28T12:51:09.951Z,13.68
2023-04-28T12:56:31.788Z,15.45
2023-04-28T13:01:53.640Z,16.00
2023-04-28T13:07:16.205Z,15.73
2023-04-28T13:12:38.063Z,16.15
2023-04-28T13:17:59.966Z,16.29
2023-04-28T13:23:22.027Z,16.63
2023-04-28T13:28:43.856Z,16.46
2023-04-28T13:34:05.704Z,16.52
2023-04-28T13:39:27.569Z,16.08
2023-04-28T13:44:49.541Z,15.80
2023-04-28T13:50:11.417Z,15.84
2023-04-28T13:55:33.378Z,15.76
2023-04-28T14:00:57.187Z,15.74
2023-04-28T14:06:19.301Z,15.93
2023-04-28T14:11:41.146Z,15.63
2023-04-28T14:17:03.141Z,15.53
2023-04-28T14:22:25.031Z,15.04
2023-04-28T14:27:50.791Z,14.83
2023-04-28T14:33:12.726Z,14.72
2023-04-28T14:38:34.639Z,15.24
2023-04-28T14:43:56.440Z,15.36
2023-04-28T14:49:18.286Z,15.45
2023-04-28T14:54:40.230Z,15.23
2023-04-28T15:00:03.370Z,15.35
2023-04-28T15:05:25.191Z,14.90
2023-04-28T15:10:47.054Z,15.20
2023-04-28T15:16:08.975Z,15.16
2023-04-28T15:21:30.837Z,15.00
2023-04-28T15:26:52.749Z,15.31
2023-04-28T15:32:14.580Z,15.30
2023-04-28T15:37:46.523Z,14.44
2023-04-28T15:43:08.411Z,14.17
2023-04-28T15:48:30.218Z,14.16
2023-04-28T15:53:52.309Z,14.39
2023-04-28T15:59:14.137Z,14.61
2023-04-28T16:04:36.077Z,14.79
2023-04-28T16:09:57.984Z,14.52
2023-04-28T16:15:20.587Z,14.37
2023-04-28T16:20:42.485Z,14.14
2023-04-28T16:26:04.412Z,13.80
2023-04-28T16:31:26.657Z,14.00
2023-04-28T16:36:48.515Z,13.96
2023-04-28T16:42:10.388Z,13.98
2023-04-28T16:47:32.203Z,14.12
2023-04-28T16:52:54.017Z,14.02
2023-04-28T16:58:15.907Z,13.96
2023-04-28T17:03:39.372Z,13.76
2023-04-28T17:09:01.232Z,13.61
2023-04-28T17:14:23.082Z,13.56
2023-04-28T17:19:44.920Z,13.50
2023-04-28T17:25:07.135Z,13.41
2023-04-28T17:30:28.966Z,13.40
2023-04-28T17:35:50.819Z,13.16
2023-04-28T17:41:12.658Z,13.15
2023-04-28T17:46:34.552Z,13.01
2023-04-28T17:51:56.388Z,12.81
2023-04-28T17:57:18.246Z,12.68
2023-04-28T18:02:40.233Z,12.62
2023-04-28T18:08:02.939Z,12.50
2023-04-28T18:13:24.806Z,12.33
2023-04-28T18:18:46.788Z,12.28
2023-04-28T18:24:08.642Z,12.26
2023-04-28T18:29:30.458Z,12.15
2023-04-28T18:34:52.434Z,11.95
2023-04-28T18:40:14.451Z,11.75
2023-04-28T18:45:37.771Z,11.69
2023-04-28T18:51:00.826Z,11.55
2023-04-28T18:56:22.751Z,11.50
2023-04-28T19:01:44.702Z,11.35
2023-04-28T19:07:06.658Z,11.20
2023-04-28T19:12:28.510Z,11.06
2023-04-28T19:17:50.557Z,10.88
2023-04-28T19:23:12.483Z,10.77
2023-04-28T19:28:34.594Z,10.63
2023-04-28T19:33:57.826Z,10.56
2023-04-28T19:39:19.767Z,10.44
2023-04-28T19:44:41.743Z,10.31
2023-04-28T19:50:03.783Z,10.28
2023-04-28T19:55:25.749Z,10.29
2023-04-28T20:00:47.633Z,10.19
2023-04-28T20:06:15.240Z,10.20
2023-04-28T20:11:37.075Z,10.07
2023-04-28T20:16:59.461Z,9.95
2023-04-28T20:22:21.291Z,10.01
2023-04-28T20:27:43.150Z,9.88
2023-04-28T20:33:04.996Z,9.74
2023-04-28T20:38:29.033Z,9.72
2023-04-28T20:43:50.853Z,9.59
2023-04-28T20:49:12.751Z,9.47
2023-04-28T20:54:35.502Z,9.37
2023-04-28T20:59:57.332Z,9.27
2023-04-28T21:05:19.348Z,9.29
2023-04-28T21:10:41.234Z,9.27
2023-04-28T21:16:03.081Z,9.09
2023-04-28T21:21:24.905Z,8.99
2023-04-28T21:26:46.700Z,8.98
2023-04-28T21:32:08.585Z,8.90
2023-04-28T21:37:31.309Z,8.72
2023-04-28T21:42:53.122Z,8.77
2023-04-28T21:48:15.026Z,8.61
2023-04-28T21:53:36.873Z,8.68
2023-04-28T21:58:58.786Z,8.45
2023-04-28T22:04:21.039Z,8.37
2023-04-28T22:09:42.936Z,8.34
2023-04-28T22:15:05.384Z,8.27
2023-04-28T22:20:27.282Z,8.14
2023-04-28T22:25:49.988Z,8.12
2023-04-28T22:31:11.845Z,8.09
2023-04-28T22:36:33.680Z,7.96
2023-04-28T22:41:55.612Z,7.95
2023-04-28T22:47:17.473Z,7.83
2023-04-28T22:52:39.391Z,7.59
2023-04-28T22:58:01.293Z,7.69
2023-04-28T23:03:23.265Z,7.68
2023-04-28T23:08:45.151Z,7.63
2023-04-28T23:14:06.994Z,7.59
2023-04-28T23:19:28.881Z,7.46
2023-04-28T23:24:50.699Z,7.47
2023-04-28T23:30:13.092Z,7.50
2023-04-28T23:35:34.908Z,7.36
2023-04-28T23:40:56.751Z,7.40
2023-04-28T23:46:18.669Z,7.26
2023-04-28T23:51:40.511Z,7.29
2023-04-28T23:57:02.384Z,7.21
